Terminal Aerodrome Forecast
Issued by NWS Cleveland, OH

Home | Current Version | Previous Version | Text Only | Print | Product List | Glossary On
Versions: 1 2 3 4 5 6 7 8 9 10 11 12 13 14 15 16 17 18 19 20 21 22 23 24 25 26
981
FTUS41 KCLE 012055 AAB
TAFCLE
TAF AMD
KCLE 012055Z 0121/0224 02006KT P6SM OVC008
     FM020500 06006KT 2SM -RA BR OVC006
     FM021100 02008KT 2SM BR OVC004
     FM021600 02008KT P6SM OVC008=

USA.gov is the U.S. government's official web portal to all federal, state and local government web resources and services.